Latest Weather Observations for Applethorpe

IDN60801

Issued at 2:02 pm EST Wednesday 23 August 2017 (issued every 30 minutes, with the page automatically refreshed every 10 minutes)

About weather observations | Map of weather stations | Latest weather observations for NSW | Other Formats
Station Details ID: 041175 Name: APPLETHORPE Lat: -28.62 Lon: 151.95 Height: 871.6 m
Data from the previous 72 hours. | See also: Recent months at Applethorpe
Date/Time
EST
Temp
°C
App
Temp
°C
Dew
Point
°C
Rel
Hum
%
Delta-T
°C
Wind Press
QNH
hPa
Press
MSL
hPa
Rain since
9am
mm
Dir  Spd
km/h
Gust
km/h
Spd
kts
Gust
kts
23/02:00pm 20.6 16.8 -0.8 24 9.8 WNW 9 22 5 12 1019.1 1018.8 0.0
23/01:30pm 20.3 17.0 0.0 25 9.4 NW 7 15 4 8 1019.5 1019.3 0.0
23/01:00pm 20.1 16.3 -1.1 24 9.6 WNW 9 20 5 11 1019.8 1019.5 0.0
23/12:30pm 20.1 17.1 2.0 30 8.7 NW 7 17 4 9 1020.2 1019.9 0.0
23/12:00pm 19.3 15.6 -0.1 27 8.9 WNW 9 20 5 11 1020.6 1020.4 0.0
23/11:30am 19.8 16.2 0.8 28 8.9 NW 9 15 5 8 1021.2 1020.9 0.0
23/11:00am 18.4 14.5 1.3 31 8.0 NNW 11 17 6 9 1021.5 1021.3 0.0
23/10:30am 17.4 15.8 6.3 48 5.7 NW 4 11 2 6 1021.7 1021.5 0.0
23/10:00am 16.8 15.3 7.0 52 5.1 ENE 4 6 2 3 1022.0 1021.8 0.0
23/09:30am 14.8 13.3 8.3 65 3.4 NE 6 9 3 5 1022.2 1021.9 0.0
23/09:00am 13.9 12.4 9.0 72 2.6 NE 7 13 4 7 1022.3 1022.0 0.0
23/08:30am 12.6 11.5 9.8 83 1.5 ENE 6 9 3 5 1022.2 1021.9 0.0
23/08:00am 10.9 9.8 9.8 93 0.6 E 6 11 3 6 1022.0 1021.8 0.0
23/07:30am 8.9 8.5 8.3 96 0.3 CALM 0 0 0 0 1021.9 1021.7 0.0
23/07:00am 4.7 3.5 4.5 99 0.1 CALM 0 0 0 0 1021.7 1021.5 0.0
23/06:30am 4.0 2.6 3.8 99 0.1 CALM 0 2 0 1 1021.6 1021.4 0.0
23/06:00am 3.5 2.0 3.0 97 0.2 CALM 0 0 0 0 1021.4 1021.1 0.0
23/05:30am 2.9 1.3 2.7 99 0.1 CALM 0 0 0 0 1021.2 1020.9 0.0
23/05:00am 3.3 1.8 3.1 99 0.1 CALM 0 0 0 0 1021.1 1020.8 0.0
23/04:30am 3.8 2.4 3.6 99 0.1 CALM 0 4 0 2 1021.1 1020.8 0.0
23/04:00am 3.5 2.0 3.0 97 0.2 CALM 0 0 0 0 1021.0 1020.7 0.0
23/03:30am 4.0 2.6 3.8 99 0.1 CALM 0 0 0 0 1021.0 1020.7 0.0
23/03:00am 3.5 2.0 3.0 97 0.2 CALM 0 0 0 0 1021.0 1020.7 0.0
23/02:30am 3.7 1.9 3.2 97 0.2 NNE 2 4 1 2 1021.0 1020.7 0.0
23/02:00am 3.0 1.5 3.0 100 0.0 CALM 0 0 0 0 1021.0 1020.7 0.0
23/01:30am 3.5 1.6 2.8 95 0.3 ENE 2 4 1 2 1021.2 1020.9 0.0
23/01:00am 4.7 2.9 3.6 93 0.5 NE 2 4 1 2 1021.4 1021.1 0.0
23/12:30am 4.3 2.5 3.6 95 0.3 NE 2 2 1 1 1021.5 1021.3 0.0
23/12:00am 4.4 3.0 3.7 95 0.3 CALM 0 0 0 0 1021.7 1021.5 0.0
 
Date/Time
EST
Temp
°C
App
Temp
°C
Dew
Point
°C
Rel
Hum
%
Delta-T
°C
Wind Press
QNH
hPa
Press
MSL
hPa
Rain since
9am
mm
Dir  Spd
km/h
Gust
km/h
Spd
kts
Gust
kts
22/11:30pm 4.9 3.6 4.2 95 0.3 CALM 0 0 0 0 1021.8 1021.6 0.0
22/11:00pm 5.2 4.0 4.5 95 0.3 CALM 0 0 0 0 1022.0 1021.8 0.0
22/10:30pm 4.9 3.2 4.2 95 0.3 NNE 2 4 1 2 1022.2 1021.9 0.0
22/10:00pm 5.2 3.6 2.4 82 1.2 CALM 0 0 0 0 1022.0 1021.8 0.0
22/09:30pm 4.5 2.8 1.6 81 1.2 CALM 0 0 0 0 1021.8 1021.6 0.0
22/09:00pm 5.2 2.3 1.4 76 1.6 ENE 6 11 3 6 1021.7 1021.5 0.0
22/08:30pm 5.6 4.0 2.3 79 1.4 CALM 0 2 0 1 1021.3 1021.0 0.0
22/08:00pm 6.3 4.7 2.4 76 1.7 CALM 0 0 0 0 1021.1 1020.8 0.0
22/07:30pm 7.6 6.0 2.3 69 2.3 CALM 0 0 0 0 1020.7 1020.5 0.0
22/07:00pm 9.0 7.3 1.9 61 3.1 CALM 0 0 0 0 1020.4 1020.1 0.0
22/06:30pm 11.1 9.3 1.4 51 4.3 CALM 0 0 0 0 1020.1 1019.8 0.0
22/06:00pm 15.1 11.8 -1.0 33 7.0 W 6 6 3 3 1019.5 1019.3 0.0
22/05:30pm 16.3 13.0 -1.0 30 7.6 W 6 9 3 5 1019.2 1018.9 0.0
22/05:00pm 18.2 14.1 -3.0 23 9.1 WSW 9 15 5 8 1018.7 1018.4 0.0
22/04:30pm 19.2 15.3 -1.4 25 9.2 W 9 19 5 10 1018.2 1017.9 0.0
22/04:00pm 19.8 15.6 -0.9 25 9.4 WSW 11 20 6 11 1017.8 1017.5 0.0
22/03:30pm 20.7 16.9 -0.6 24 9.8 W 9 20 5 11 1017.6 1017.3 0.0
22/03:00pm 19.8 15.3 -0.2 26 9.2 WNW 13 28 7 15 1017.6 1017.3 0.0
22/02:30pm 19.2 14.7 -0.2 27 8.9 WNW 13 22 7 12 1017.6 1017.3 0.0
22/02:00pm 20.2 16.2 0.2 26 9.3 WNW 11 24 6 13 1017.7 1017.4 0.0
22/01:30pm 19.3 14.8 -0.1 27 8.9 WNW 13 24 7 13 1017.9 1017.6 0.0
22/01:00pm 19.4 16.3 3.6 35 7.8 WNW 9 19 5 10 1018.0 1017.7 0.0
22/12:30pm 18.9 16.1 5.1 40 7.0 NW 9 20 5 11 1018.5 1018.1 0.0
22/12:00pm 17.6 14.2 5.8 46 6.0 WNW 13 26 7 14 1018.9 1018.6 0.0
22/11:30am 17.0 14.2 7.0 51 5.2 NNW 11 22 6 12 1019.4 1019.1 0.0
22/11:00am 15.9 13.3 7.9 59 4.2 NW 11 19 6 10 1020.0 1019.7 0.0
22/10:30am 15.0 12.4 7.9 62 3.7 NNW 11 24 6 13 1020.3 1020.0 0.0
22/10:00am 14.1 10.9 8.6 69 2.9 NNW 15 26 8 14 1020.3 1020.0 0.0
22/09:30am 13.0 9.9 8.8 75 2.2 NNW 15 24 8 13 1020.5 1020.3 0.0
22/09:00am 12.7 9.6 8.9 78 2.0 N 15 28 8 15 1020.6 1020.4 0.0
22/08:30am 11.7 8.6 9.0 83 1.4 N 15 28 8 15 1020.6 1020.4 0.0
22/08:00am 11.6 8.6 9.1 85 1.3 N 15 24 8 13 1020.4 1020.1 0.0
22/07:30am 10.9 7.8 8.8 87 1.1 N 15 28 8 15 1020.0 1019.7 0.0
22/07:00am 9.9 7.0 8.3 90 0.8 N 13 22 7 12 1019.5 1019.3 0.0
22/06:30am 9.7 7.2 8.3 91 0.7 N 11 20 6 11 1019.2 1018.9 0.0
22/06:00am 9.6 6.7 8.2 91 0.7 N 13 24 7 13 1018.7 1018.4 0.0
22/05:30am 9.5 6.6 8.3 92 0.6 N 13 24 7 13 1018.6 1018.3 0.0
22/05:00am 9.5 7.0 8.3 92 0.6 N 11 20 6 11 1018.6 1018.3 0.0
22/04:30am 9.6 6.8 8.4 92 0.6 N 13 24 7 13 1018.3 1018.0 0.0
22/04:00am 9.8 7.3 8.4 91 0.7 N 11 19 6 10 1018.5 1018.1 0.0
22/03:30am 9.8 7.4 8.6 92 0.6 N 11 17 6 9 1018.5 1018.1 0.0
22/03:00am 9.8 6.6 8.6 92 0.6 N 15 26 8 14 1018.3 1018.0 0.0
22/02:30am 9.5 6.6 8.1 91 0.7 N 13 20 7 11 1018.6 1018.3 0.0
22/02:00am 8.8 6.5 7.4 91 0.7 N 9 17 5 9 1018.8 1018.5 0.0
22/01:30am 8.8 6.4 7.2 90 0.8 N 9 15 5 8 1018.9 1018.6 0.0
22/01:00am 8.9 6.5 6.9 87 1.0 N 9 17 5 9 1019.1 1018.8 0.0
22/12:30am 6.5 4.3 5.4 93 0.5 NNE 6 9 3 5 1019.1 1018.8 0.0
22/12:00am 5.1 3.8 4.0 93 0.5 CALM 0 2 0 1 1019.7 1019.4 0.0
 
Date/Time
EST
Temp
°C
App
Temp
°C
Dew
Point
°C
Rel
Hum
%
Delta-T
°C
Wind Press
QNH
hPa
Press
MSL
hPa
Rain since
9am
mm
Dir  Spd
km/h
Gust
km/h
Spd
kts
Gust
kts
21/11:30pm 6.2 4.2 4.4 88 0.8 ENE 4 6 2 3 1019.3 1019.0 0.0
21/11:00pm 6.5 4.4 4.1 85 1.1 NE 4 6 2 3 1019.8 1019.5 0.0
21/10:30pm 6.9 5.3 4.5 85 1.1 NE 2 4 1 2 1019.9 1019.6 0.0
21/10:00pm 6.7 5.0 4.0 83 1.2 NE 2 4 1 2 1020.2 1019.9 0.0
21/09:30pm 7.6 6.1 2.9 72 2.1 CALM 0 0 0 0 1020.4 1020.1 0.0
21/09:00pm 6.9 5.5 3.3 78 1.6 CALM 0 2 0 1 1020.2 1019.9 0.0
21/08:30pm 8.2 6.8 3.3 71 2.2 CALM 0 0 0 0 1019.8 1019.5 0.0
21/08:00pm 10.1 8.1 2.5 59 3.4 N 2 6 1 3 1019.7 1019.4 0.0
21/07:30pm 11.3 8.2 1.3 50 4.4 N 7 11 4 6 1019.7 1019.4 0.0
21/07:00pm 12.0 9.0 0.6 45 5.0 NNW 6 13 3 7 1020.1 1019.8 0.0
21/06:30pm 11.6 9.3 0.6 47 4.8 NNE 2 6 1 3 1019.1 1018.8 0.0
21/06:00pm 12.6 10.2 -0.4 40 5.6 N 2 6 1 3 1018.9 1018.6 0.0
21/05:30pm 13.4 10.4 -2.2 34 6.5 N 4 13 2 7 1018.6 1018.3 0.0
21/05:00pm 14.2 10.1 -3.4 29 7.2 NNW 9 15 5 8 1018.6 1018.3 0.0
21/04:30pm 14.9 10.4 -3.2 28 7.5 N 11 22 6 12 1018.0 1017.7 0.0
21/04:00pm 14.5 10.3 -3.6 28 7.4 N 9 17 5 9 1018.2 1017.9 0.0
21/03:30pm 14.8 10.3 -3.0 29 7.4 N 11 17 6 9 1018.5 1018.1 0.0
21/03:00pm 14.6 9.7 -3.0 29 7.3 N 13 20 7 11 1018.1 1017.8 0.0
21/02:30pm 13.9 9.4 -3.5 30 7.1 N 11 22 6 12 1018.2 1017.9 0.0
21/02:00pm 13.9 8.8 -4.8 27 7.4 N 13 22 7 12 1018.7 1018.4 0.0
21/01:30pm 13.5 9.2 -5.2 27 7.3 NNW 9 17 5 9 1019.3 1019.0 0.0
21/01:00pm 13.7 9.2 -6.6 24 7.7 NNW 9 19 5 10 1020.0 1019.7 0.0
21/12:30pm 14.4 10.0 -5.5 25 7.8 NNW 9 20 5 11 1020.4 1020.1 0.0
21/12:00pm 15.6 10.8 -5.7 22 8.4 NNW 11 20 6 11 1021.1 1020.8 0.0
21/11:30am 14.8 9.4 -4.7 25 7.8 NNW 15 24 8 13 1021.7 1021.5 0.0
21/11:00am 14.9 10.5 -5.4 24 8.0 NNW 9 19 5 10 1022.2 1021.9 0.0
21/10:30am 13.3 10.5 -0.3 39 5.9 N 4 9 2 5 1022.4 1022.1 0.0
21/10:00am 12.8 9.6 -0.5 40 5.7 NE 6 9 3 5 1022.7 1022.5 0.0
21/09:30am 12.0 9.1 1.4 48 4.7 NNE 6 9 3 5 1022.7 1022.5 0.0
21/09:00am 10.4 7.6 2.1 56 3.7 NE 6 11 3 6 1022.6 1022.4 0.0
21/08:30am 9.1 6.4 2.9 65 2.8 ENE 6 11 3 6 1022.2 1021.9 0.0
21/08:00am 6.0 4.6 3.5 84 1.1 CALM 0 2 0 1 1022.5 1022.3 0.0
21/07:30am 1.6 -0.3 0.6 93 0.4 CALM 0 0 0 0 1022.2 1021.9 0.0
21/07:00am -0.8 - - - - CALM 0 0 0 0 1021.7 1021.5 0.0
21/06:30am -1.6 - - - - N 2 4 1 2 1021.3 1021.0 0.0
21/06:00am -1.3 - - - - NE 4 6 2 3 1020.7 1020.5 0.0
21/05:30am -1.5 - - - - CALM 0 0 0 0 1020.9 1020.6 0.0
21/05:00am -1.5 - - - - CALM 0 0 0 0 1020.4 1020.1 0.0
21/04:30am -1.1 - - - - CALM 0 0 0 0 1020.1 1019.8 0.0
21/04:00am -0.9 - - - - CALM 0 0 0 0 1020.2 1019.9 0.0
21/03:30am -0.4 - - - - NNE 2 4 1 2 1020.4 1020.1 0.0
21/03:00am 0.0 - - - - CALM 0 0 0 0 1020.5 1020.3 0.0
21/02:30am 0.8 -1.5 0.3 96 0.2 NE 2 4 1 2 1020.5 1020.3 0.0
21/02:00am 1.3 -1.0 0.3 93 0.4 ENE 2 6 1 3 1020.7 1020.5 0.0
21/01:30am 1.0 -1.0 0.2 94 0.3 CALM 0 0 0 0 1021.1 1020.8 0.0
21/01:00am 1.4 -0.9 0.6 94 0.3 NE 2 6 1 3 1021.0 1020.7 0.0
21/12:30am 1.4 -0.9 0.6 94 0.3 ENE 2 2 1 1 1021.1 1020.8 0.0
21/12:00am 1.7 -0.1 0.9 94 0.3 CALM 0 2 0 1 1021.5 1021.3 0.0
 
Date/Time
EST
Temp
°C
App
Temp
°C
Dew
Point
°C
Rel
Hum
%
Delta-T
°C
Wind Press
QNH
hPa
Press
MSL
hPa
Rain since
9am
mm
Dir  Spd
km/h
Gust
km/h
Spd
kts
Gust
kts
20/11:30pm 2.9 0.8 1.7 92 0.5 ENE 2 6 1 3 1021.8 1021.6 0.0
20/11:00pm 2.8 0.6 1.3 90 0.6 ENE 2 4 1 2 1021.7 1021.5 0.0
20/10:30pm 3.2 1.1 1.7 90 0.6 E 2 4 1 2 1021.8 1021.6 0.0
20/10:00pm 3.4 1.3 1.5 87 0.8 NE 2 4 1 2 1021.7 1021.5 0.0
20/09:30pm 5.1 2.5 1.0 75 1.7 NE 4 9 2 5 1021.5 1021.3 0.0
20/09:00pm 3.7 1.4 0.7 81 1.2 ENE 2 4 1 2 1021.4 1021.1 0.0
20/08:30pm 3.6 1.8 0.9 82 1.1 CALM 0 2 0 1 1021.3 1021.0 0.0
20/08:00pm 4.3 2.5 0.9 78 1.4 CALM 0 0 0 0 1021.2 1020.9 0.0
20/07:30pm 5.0 2.6 0.0 70 2.0 NE 2 6 1 3 1021.2 1020.9 0.0
20/07:00pm 5.0 3.2 1.4 77 1.5 CALM 0 0 0 0 1021.0 1020.7 0.0
20/06:30pm 6.4 4.7 2.0 73 1.9 CALM 0 0 0 0 1020.7 1020.5 0.0
20/06:00pm 9.0 6.4 1.1 57 3.4 ENE 4 4 2 2 1020.3 1020.0 0.0
20/05:30pm 10.7 8.0 0.5 49 4.4 ENE 4 9 2 5 1019.9 1019.6 0.0
20/05:00pm 12.6 9.5 0.2 42 5.4 E 6 9 3 5 1019.7 1019.4 0.0
20/04:30pm 13.9 10.5 -0.6 37 6.3 E 7 13 4 7 1019.0 1018.7 0.0
20/04:00pm 15.3 12.0 -1.3 32 7.2 E 6 11 3 6 1018.7 1018.4 0.0
20/03:30pm 16.0 12.4 -1.9 29 7.7 ESE 7 13 4 7 1018.3 1018.0 0.0
20/03:00pm 16.2 12.6 -2.3 28 7.9 NE 7 15 4 8 1018.3 1018.0 0.0
20/02:30pm 15.8 12.2 -3.4 26 8.0 ESE 6 13 3 7 1018.3 1018.0 0.0

Other Formats:

Comma delimited format used in spreadsheet applications
http://www.bom.gov.au/fwo/IDN60801/IDN60801.94553.axf

JavaScript Object Notation format (JSON) in row-major order
http://www.bom.gov.au/fwo/IDN60801/IDN60801.94553.json